Time;durP1;ratioP1;P1;durP2;ratioP2;P2;SDS_P1;SDS_P2;PMS_P1;PMS_P2;Temp;Humidity;BMP_temperature;BMP_pressure;BME280_temperature;BME280_humidity;BME280_pressure;Samples;Min_cycle;Max_cycle;Signal;HPM_P1;HPM_P2
2023/05/19 08:35:32;;;;;;;;;4.50;4.50;;;;;20.11;38.26;101860.81;4979043;28;45909;-49
2023/05/19 08:37:57;;;;;;;;;5.00;5.00;;;;;20.13;38.27;101856.31;4983486;28;45759;-46
2023/05/19 08:40:26;;;;;;;;;6.67;5.33;;;;;20.12;38.64;101852.00;4983838;28;50680;-47
2023/05/19 08:42:51;;;;;;;;;4.00;4.00;;;;;20.13;38.54;101853.69;4990334;28;46471;-49
2023/05/19 08:45:16;;;;;;;;;5.50;3.75;;;;;20.13;38.24;101843.16;4980677;28;45358;-50
2023/05/19 08:47:45;;;;;;;;;5.75;4.50;;;;;20.14;38.71;101844.88;4980491;28;45794;-51
2023/05/19 08:50:15;;;;;;;;;4.75;4.25;;;;;20.16;38.14;101843.94;4979735;28;45341;-46
2023/05/19 08:52:51;;;;;;;;;6.50;4.00;;;;;20.16;38.25;101837.78;4979775;28;46275;-46
2023/05/19 08:55:35;;;;;;;;;5.00;5.00;;;;;20.18;38.52;101838.59;4980934;28;45757;-47
2023/05/19 08:58:03;;;;;;;;;4.00;4.00;;;;;20.17;38.50;101837.75;4980119;28;45404;-54
2023/05/19 09:00:29;;;;;;;;;3.50;3.00;;;;;20.18;38.60;101838.59;4980678;28;45528;-49
2023/05/19 09:02:54;;;;;;;;;4.75;4.50;;;;;20.20;38.36;101834.97;4980145;28;45622;-46
2023/05/19 09:05:20;;;;;;;;;4.25;4.25;;;;;20.20;38.23;101834.97;4980026;28;45337;-46
2023/05/19 09:07:47;;;;;;;;;5.50;4.00;;;;;20.22;38.57;101833.16;4980861;28;45442;-46
2023/05/19 09:10:13;;;;;;;;;6.00;6.00;;;;;20.23;38.51;101836.63;4979920;28;45602;-46
2023/05/19 09:12:40;;;;;;;;;4.75;4.75;;;;;20.23;38.35;101836.63;4980291;28;46961;-46
2023/05/19 09:15:08;;;;;;;;;5.00;3.75;;;;;20.23;38.24;101823.47;4980484;28;45341;-46
2023/05/19 09:17:34;;;;;;;;;8.00;5.00;;;;;20.22;38.27;101821.78;4989905;28;45705;-46
2023/05/19 09:20:10;;;;;;;;;6.00;5.00;;;;;20.24;38.13;101826.06;4989298;28;45625;-46
2023/05/19 09:22:44;;;;;;;;;5.00;5.00;;;;;20.26;38.62;101811.97;4997883;28;45605;-50
2023/05/19 09:25:22;;;;;;;;;4.50;4.50;;;;;20.26;38.51;101818.09;4999586;28;45464;-52
2023/05/19 09:27:48;;;;;;;;;5.00;3.25;;;;;20.28;38.48;101821.53;4983731;28;45324;-56
2023/05/19 09:30:15;;;;;;;;;5.50;4.75;;;;;20.27;38.37;101809.28;4981545;28;45225;-50
2023/05/19 09:32:41;;;;;;;;;5.75;4.75;;;;;20.28;38.26;101803.09;4989988;28;46949;-50
2023/05/19 09:35:06;;;;;;;;;5.00;3.50;;;;;20.28;38.61;101800.47;4983812;28;45224;-50
2023/05/19 09:37:32;;;;;;;;;5.00;3.25;;;;;20.28;38.62;101799.63;4981530;28;45218;-49
2023/05/19 09:39:58;;;;;;;;;4.00;4.00;;;;;20.31;38.26;101802.09;4980151;28;45373;-50
2023/05/19 09:42:25;;;;;;;;;7.25;5.00;;;;;20.31;38.79;101800.34;4980120;28;46443;-46
2023/05/19 09:45:01;;;;;;;;;6.00;5.00;;;;;20.31;38.31;101795.09;4982793;28;45388;-48
2023/05/19 09:47:31;;;;;;;;;4.00;4.00;;;;;20.30;38.62;101796.00;4991147;28;45336;-55
2023/05/19 09:49:57;;;;;;;;;4.00;4.00;;;;;20.33;38.45;101801.16;4982645;28;45187;-57
2023/05/19 09:52:22;;;;;;;;;6.00;6.00;;;;;20.33;38.46;101797.66;4999302;28;46216;-51
2023/05/19 09:54:50;;;;;;;;;6.25;4.25;;;;;20.33;38.58;101798.53;4984810;28;45211;-54
2023/05/19 09:57:16;;;;;;;;;4.00;4.00;;;;;20.34;38.41;101789.69;4980603;28;45318;-58
2023/05/19 09:59:42;;;;;;;;;6.25;5.75;;;;;20.35;38.29;101796.66;4980431;28;45411;-57
2023/05/19 10:02:16;;;;;;;;;7.50;5.00;;;;;20.36;38.27;101794.91;4979314;28;45982;-46
2023/05/19 10:04:43;;;;;;;;;4.00;4.00;;;;;20.35;38.24;101796.66;4979696;28;45308;-48
2023/05/19 10:07:08;;;;;;;;;4.00;4.00;;;;;20.35;38.78;101791.41;4978955;28;45290;-49
2023/05/19 10:09:36;;;;;;;;;5.50;5.50;;;;;20.34;38.53;101789.69;4979411;28;45361;-48
2023/05/19 10:12:03;;;;;;;;;5.00;5.00;;;;;20.36;38.31;101789.63;4978592;28;45371;-47
2023/05/19 10:14:28;;;;;;;;;5.00;5.00;;;;;20.38;38.28;101793.06;4979113;28;45780;-46
2023/05/19 10:16:56;;;;;;;;;3.00;3.00;;;;;20.38;38.64;101790.44;4979236;28;45318;-46
2023/05/19 10:19:23;;;;;;;;;6.50;5.00;;;;;20.36;38.32;101787.00;4979827;28;45380;-46
2023/05/19 10:21:49;;;;;;;;;3.50;3.50;;;;;20.36;38.45;101782.59;4995634;28;46279;-52
2023/05/19 10:24:15;;;;;;;;;8.00;5.00;;;;;20.37;38.70;101784.31;4989098;28;45223;-57
2023/05/19 10:26:45;;;;;;;;;5.25;5.25;;;;;20.38;38.55;101786.03;4980169;28;45301;-51
2023/05/19 10:29:16;;;;;;;;;4.50;4.50;;;;;20.38;38.10;101779.91;4980355;28;45591;-46
2023/05/19 10:31:45;;;;;;;;;5.00;4.25;;;;;20.38;38.31;101780.75;4982470;28;45584;-50
2023/05/19 10:34:33;;;;;;;;;8.50;5.75;;;;;20.39;38.41;101784.25;4978940;28;45277;-56
2023/05/19 10:37:36;;;;;;;;;5.00;4.50;;;;;20.39;38.70;101776.38;4979025;28;45373;-55
2023/05/19 10:40:28;;;;;;;;;5.00;5.00;;;;;20.41;38.55;101779.75;4979752;28;45317;-47
2023/05/19 10:43:10;;;;;;;;;6.75;5.50;;;;;20.39;38.68;101771.94;4995563;28;45073;-54
2023/05/19 10:45:46;;;;;;;;;5.25;5.00;;;;;20.41;38.36;101773.66;4979996;28;45876;-52
2023/05/19 10:48:15;;;;;;;;;5.00;5.00;;;;;20.42;38.60;101775.38;4979071;28;45182;-59
2023/05/19 10:50:45;;;;;;;;;4.00;4.00;;;;;20.41;38.08;101765.75;4978799;28;45531;-58
2023/05/19 10:53:18;;;;;;;;;5.00;5.00;;;;;20.42;38.69;101775.38;4978459;28;45590;-59
2023/05/19 10:56:02;;;;;;;;;7.25;5.25;;;;;20.42;38.44;101772.75;4978189;28;45328;-59
2023/05/19 10:58:49;;;;;;;;;7.25;5.00;;;;;20.40;38.36;101770.16;4978369;28;46118;-53
2023/05/19 11:01:15;;;;;;;;;6.25;4.00;;;;;20.39;38.67;101750.03;4978443;28;45238;-54
2023/05/19 11:03:52;;;;;;;;;4.25;4.00;;;;;20.41;38.18;101763.97;4977952;28;46541;-51
2023/05/19 11:06:27;;;;;;;;;6.50;5.00;;;;;20.43;38.60;101756.03;4978081;28;45383;-56
2023/05/19 11:09:01;;;;;;;;;4.50;4.00;;;;;20.42;38.26;101757.78;4978699;28;45319;-59
2023/05/19 11:11:43;;;;;;;;;5.50;5.50;;;;;20.43;38.34;101761.28;4978262;28;45266;-48
2023/05/19 11:14:11;;;;;;;;;7.00;4.00;;;;;20.39;38.50;101755.28;4978049;28;46408;-56
2023/05/19 11:16:40;;;;;;;;;5.00;5.00;;;;;20.42;38.24;101756.94;4977349;28;45282;-50
2023/05/19 11:19:06;;;;;;;;;5.50;5.00;;;;;20.42;38.75;101762.22;4977683;28;45379;-46
2023/05/19 11:21:51;;;;;;;;;5.25;5.25;;;;;20.41;38.67;101752.59;4978437;28;45456;-46
2023/05/19 11:24:41;;;;;;;;;4.75;4.75;;;;;20.41;38.76;101747.31;4979619;28;47130;-46
2023/05/19 11:27:29;;;;;;;;;4.75;4.75;;;;;20.42;38.39;101738.50;4978481;28;45335;-48
2023/05/19 11:30:17;;;;;;;;;5.00;5.00;;;;;20.39;38.56;101740.34;4978664;28;45368;-51
2023/05/19 11:32:46;;;;;;;;;4.00;4.00;;;;;20.40;38.39;101743.81;4977365;28;45452;-45
2023/05/19 11:35:11;;;;;;;;;3.00;3.00;;;;;20.42;38.64;101738.50;4991304;28;45384;-47
2023/05/19 11:37:39;;;;;;;;;4.25;4.25;;;;;20.43;38.49;101732.31;4997313;28;45287;-46
2023/05/19 11:40:08;;;;;;;;;4.00;4.00;;;;;20.43;38.15;101721.78;4985449;28;45463;-52
2023/05/19 11:42:34;;;;;;;;;6.25;5.25;;;;;20.34;38.61;101721.22;4995286;28;45450;-46
2023/05/19 11:45:00;;;;;;;;;6.50;4.00;;;;;20.42;38.61;101735.88;4982612;28;45718;-59
2023/05/19 11:47:26;;;;;;;;;4.00;3.25;;;;;20.42;38.41;101733.25;4982984;28;45211;-50
2023/05/19 11:49:56;;;;;;;;;5.00;4.25;;;;;20.39;38.64;101724.53;4998505;28;45160;-51
2023/05/19 11:52:22;;;;;;;;;5.00;5.00;;;;;20.40;38.63;101720.13;4998134;28;44815;-46
2023/05/19 11:54:48;;;;;;;;;5.00;5.00;;;;;20.43;38.13;101720.00;4982314;28;45404;-49
2023/05/19 11:57:14;;;;;;;;;9.00;5.75;;;;;20.42;38.75;101717.44;4981146;28;45394;-47
2023/05/19 11:59:44;;;;;;;;;4.50;4.00;;;;;20.44;38.27;101713.81;4985044;28;45383;-46
2023/05/19 12:02:20;;;;;;;;;6.00;4.00;;;;;20.44;38.19;101711.19;4996019;28;45510;-49
2023/05/19 12:04:48;;;;;;;;;3.50;3.50;;;;;20.43;38.30;101701.56;4981865;28;46081;-50
2023/05/19 12:07:18;;;;;;;;;5.00;5.00;;;;;20.44;38.25;101703.28;4981459;28;45784;-46
2023/05/19 12:09:47;;;;;;;;;4.25;4.25;;;;;20.44;38.86;101705.91;4981955;28;46070;-47
2023/05/19 12:12:17;;;;;;;;;4.50;3.50;;;;;20.46;38.49;101692.69;4982718;28;45509;-49
2023/05/19 12:14:45;;;;;;;;;2.00;2.00;;;;;20.47;38.28;101689.13;4999100;28;46418;-54
2023/05/19 12:17:12;;;;;;;;;5.00;5.00;;;;;20.46;38.31;101682.16;4996920;28;45333;-48
2023/05/19 12:19:37;;;;;;;;;4.00;4.00;;;;;20.48;38.18;101685.59;4984576;28;45376;-51
2023/05/19 12:22:05;;;;;;;;;7.25;5.25;;;;;20.48;38.66;101685.59;4996880;28;45591;-49
2023/05/19 12:24:33;;;;;;;;;4.25;4.00;;;;;20.48;38.59;101689.09;4994598;28;45230;-53
2023/05/19 12:27:27;;;;;;;;;4.25;4.25;;;;;20.48;38.12;101675.91;4981431;28;45784;-53
2023/05/19 12:29:55;;;;;;;;;3.75;3.75;;;;;20.49;38.11;101679.41;4978239;28;45301;-51
2023/05/19 12:32:25;;;;;;;;;6.00;4.00;;;;;20.47;38.32;101681.22;4981313;28;45250;-59
2023/05/19 12:34:51;;;;;;;;;4.50;4.50;;;;;20.49;38.20;101687.28;4980517;28;46412;-52
2023/05/19 12:37:18;;;;;;;;;5.00;5.00;;;;;20.48;38.67;101680.31;4980260;28;45369;-48
2023/05/19 12:39:44;;;;;;;;;1.75;1.00;;;;;20.48;38.07;101681.19;4981503;28;45292;-49
2023/05/19 12:42:11;;;;;;;;;5.00;5.00;;;;;20.48;38.30;101686.47;4982904;28;45600;-49
2023/05/19 12:44:48;;;;;;;;;4.25;3.75;;;;;20.49;38.25;101682.03;4980941;28;47430;-53
2023/05/19 12:47:15;;;;;;;;;5.00;4.00;;;;;20.48;38.61;101673.28;4980533;28;45783;-47
2023/05/19 12:49:59;;;;;;;;;4.25;3.00;;;;;20.48;38.34;101675.03;4980605;28;45255;-51
2023/05/19 12:52:26;;;;;;;;;5.00;5.00;;;;;20.47;38.60;101668.06;4980470;28;45227;-52
2023/05/19 12:55:00;;;;;;;;;2.75;2.75;;;;;20.48;38.68;101659.25;4980106;28;46189;-47
2023/05/19 12:57:26;;;;;;;;;5.75;4.00;;;;;20.48;38.44;101659.25;4980551;28;45773;-46
2023/05/19 12:59:51;;;;;;;;;5.50;5.00;;;;;20.48;38.49;101660.13;4980697;28;45234;-51
2023/05/19 13:02:18;;;;;;;;;5.00;5.00;;;;;20.48;38.67;101653.97;4980644;28;45587;-54
2023/05/19 13:04:43;;;;;;;;;5.00;5.00;;;;;20.46;38.67;101648.78;4979279;28;46183;-48
2023/05/19 13:07:08;;;;;;;;;6.75;4.00;;;;;20.47;38.44;101658.41;4980503;28;45445;-50
2023/05/19 13:09:35;;;;;;;;;5.00;5.00;;;;;20.49;38.36;101647.78;4980826;28;45475;-47
2023/05/19 13:12:00;;;;;;;;;5.25;5.00;;;;;20.49;38.09;101647.78;4980894;28;45376;-51
2023/05/19 13:14:26;;;;;;;;;6.00;4.50;;;;;20.49;38.71;101656.56;4980346;28;46248;-49
2023/05/19 13:16:51;;;;;;;;;4.00;4.00;;;;;20.49;38.29;101647.78;4978468;28;63853;-59
2023/05/19 13:19:18;;;;;;;;;6.33;5.67;;;;;20.49;38.25;101647.78;4983851;28;56014;-46
2023/05/19 13:21:46;;;;;;;;;5.75;4.50;;;;;20.47;38.41;101647.88;4999419;28;45184;-50
2023/05/19 13:24:11;;;;;;;;;4.00;4.00;;;;;20.49;38.65;101651.31;4986058;28;46616;-46
2023/05/19 13:26:36;;;;;;;;;8.00;5.25;;;;;20.48;38.08;101643.44;4997196;28;45501;-48
2023/05/19 13:29:02;;;;;;;;;5.00;4.25;;;;;20.50;38.59;101652.16;4985668;28;45408;-47
2023/05/19 13:31:28;;;;;;;;;4.00;4.00;;;;;20.49;38.33;101647.78;4984344;28;45304;-50
2023/05/19 13:33:53;;;;;;;;;4.50;4.50;;;;;20.50;38.49;101644.25;4990956;28;46297;-52
2023/05/19 13:36:18;;;;;;;;;6.00;5.75;;;;;20.50;38.42;101637.22;4999802;28;45234;-54
2023/05/19 13:38:44;;;;;;;;;6.00;6.00;;;;;20.50;38.50;101638.97;5002594;28;48828;-51
2023/05/19 13:41:09;;;;;;;;;5.75;5.50;;;;;20.50;38.64;101638.97;4997014;28;45384;-47
2023/05/19 13:43:34;;;;;;;;;6.00;5.00;;;;;20.49;38.31;101637.25;4980666;28;46063;-46
2023/05/19 13:46:00;;;;;;;;;6.25;5.00;;;;;20.47;38.50;101626.81;4979404;28;45357;-46
2023/05/19 13:48:25;;;;;;;;;4.67;4.33;;;;;20.50;38.27;101636.34;4978267;28;63184;-46
2023/05/19 13:50:53;;;;;;;;;4.25;3.75;;;;;20.50;38.33;101631.06;4978501;28;45313;-47
2023/05/19 13:53:18;;;;;;;;;4.75;4.75;;;;;20.49;38.57;101630.25;4978314;28;47216;-51
2023/05/19 13:55:43;;;;;;;;;4.75;4.75;;;;;20.49;38.51;101629.38;4978013;28;45354;-48
2023/05/19 13:58:10;;;;;;;;;4.00;4.00;;;;;20.48;38.16;101630.28;4978596;28;45270;-49
2023/05/19 14:00:35;;;;;;;;;6.50;5.00;;;;;20.51;38.37;101627.53;4979319;28;45367;-46
2023/05/19 14:03:01;;;;;;;;;4.50;4.50;;;;;20.50;38.43;101631.06;4982829;28;46273;-49
2023/05/19 14:05:27;;;;;;;;;5.00;5.00;;;;;20.48;38.31;101617.13;4983852;28;45373;-46
2023/05/19 14:07:53;;;;;;;;;6.00;4.75;;;;;20.48;38.68;101622.38;4991522;28;45419;-48
2023/05/19 14:10:18;;;;;;;;;5.25;3.50;;;;;20.48;38.51;101612.72;4996919;28;44843;-49
2023/05/19 14:12:44;;;;;;;;;6.25;4.00;;;;;20.49;38.44;101613.56;4983209;28;46438;-48
2023/05/19 14:15:09;;;;;;;;;8.25;5.50;;;;;20.49;38.52;101627.59;4979025;28;45475;-47
2023/05/19 14:17:35;;;;;;;;;4.00;4.00;;;;;20.48;38.12;101628.53;4977680;28;45394;-48
2023/05/19 14:20:00;;;;;;;;;3.75;3.75;;;;;20.46;38.53;101619.81;4978560;28;45539;-46
2023/05/19 14:22:26;;;;;;;;;5.50;4.00;;;;;20.49;38.58;101613.56;4978167;28;46107;-49
2023/05/19 14:24:51;;;;;;;;;8.00;5.00;;;;;20.48;38.44;101607.47;4980802;28;45430;-46
2023/05/19 14:27:16;;;;;;;;;5.00;5.00;;;;;20.48;38.25;101606.59;4985640;28;48476;-48
2023/05/19 14:29:42;;;;;;;;;6.00;5.00;;;;;20.49;38.33;101608.28;4979559;28;64810;-46
2023/05/19 14:32:07;;;;;;;;;3.00;2.00;;;;;20.49;38.51;101603.91;4978550;28;46187;-46
2023/05/19 14:34:34;;;;;;;;;6.25;5.25;;;;;20.47;38.53;101603.09;4980611;28;46890;-46
2023/05/19 14:36:59;;;;;;;;;4.00;4.00;;;;;20.48;38.37;101607.47;4980075;28;45325;-46
2023/05/19 14:39:25;;;;;;;;;4.75;4.75;;;;;20.49;38.54;101597.75;4994650;28;45368;-54
2023/05/19 14:41:51;;;;;;;;;7.00;6.00;;;;;20.49;38.25;101610.94;4984832;28;51240;-59
2023/05/19 14:44:17;;;;;;;;;4.50;4.50;;;;;20.48;38.27;101606.59;4978800;28;45239;-58
2023/05/19 14:46:42;;;;;;;;;4.00;4.00;;;;;20.48;38.46;101598.69;4982021;28;45281;-57
2023/05/19 14:49:07;;;;;;;;;5.75;4.75;;;;;20.48;38.39;101607.47;4981573;28;45191;-46
2023/05/19 14:51:33;;;;;;;;;6.50;5.00;;;;;20.49;38.40;101600.41;4998239;28;46152;-46
2023/05/19 14:53:59;;;;;;;;;5.00;4.67;;;;;20.49;38.46;101597.75;4985987;28;61094;-47
2023/05/19 14:56:25;;;;;;;;;5.00;5.00;;;;;20.48;38.12;101596.06;4979293;28;45332;-51
2023/05/19 14:58:50;;;;;;;;;6.00;5.00;;;;;20.47;38.66;101587.31;4989980;28;45502;-46
2023/05/19 15:01:15;;;;;;;;;6.00;5.00;;;;;20.47;38.50;101589.94;4991456;28;46439;-54
2023/05/19 15:03:41;;;;;;;;;5.00;5.00;;;;;20.46;38.67;101587.34;4996536;28;62990;-51
2023/05/19 15:06:09;;;;;;;;;7.75;6.00;;;;;20.48;38.20;101591.66;5000478;28;64330;-51
2023/05/19 15:08:36;;;;;;;;;5.00;5.00;;;;;20.48;38.44;101588.16;4996038;28;45198;-46
2023/05/19 15:11:04;;;;;;;;;4.25;4.25;;;;;20.47;38.45;101587.31;4996528;28;46624;-47
2023/05/19 15:13:30;;;;;;;;;6.50;4.50;;;;;20.45;38.29;101590.94;4993990;28;45366;-49
2023/05/19 15:15:55;;;;;;;;;5.00;4.00;;;;;20.45;38.53;101590.94;4994312;28;45427;-55
2023/05/19 15:18:20;;;;;;;;;8.50;5.50;;;;;20.46;38.45;101579.47;4985332;28;45315;-54
2023/05/19 15:20:46;;;;;;;;;4.67;4.00;;;;;20.45;38.69;101580.41;4983757;28;56835;-55
2023/05/19 15:23:12;;;;;;;;;6.00;6.00;;;;;20.47;38.64;101578.53;4982367;28;45728;-46
2023/05/19 15:25:37;;;;;;;;;4.00;4.00;;;;;20.46;38.42;101588.22;4985472;28;45350;-50
2023/05/19 15:28:03;;;;;;;;;5.25;5.25;;;;;20.45;38.53;101586.50;4985965;28;45232;-56
2023/05/19 15:30:28;;;;;;;;;5.75;5.75;;;;;20.45;38.09;101578.63;4987127;28;46109;-47
2023/05/19 15:32:54;;;;;;;;;4.00;4.00;;;;;20.43;38.20;101577.81;4987739;28;45343;-49
2023/05/19 15:35:19;;;;;;;;;5.50;5.00;;;;;20.43;38.19;101584.88;4977608;28;45227;-47
2023/05/19 15:37:44;;;;;;;;;1.00;1.00;;;;;20.43;38.09;101576.97;4985319;28;45433;-46
2023/05/19 15:40:10;;;;;;;;;7.00;5.00;;;;;20.42;38.44;101577.91;4991626;28;45331;-46
2023/05/19 15:42:35;;;;;;;;;5.25;3.75;;;;;20.43;38.06;101566.44;4992197;28;45462;-46
2023/05/19 15:45:01;;;;;;;;;8.75;5.00;;;;;20.42;38.35;101570.84;4989267;28;47496;-45
2023/05/19 15:47:26;;;;;;;;;5.25;4.75;;;;;20.42;38.28;101575.25;4986057;28;45209;-47
2023/05/19 15:49:51;;;;;;;;;7.00;6.00;;;;;20.43;38.43;101571.72;4987275;28;45986;-48
2023/05/19 15:52:16;;;;;;;;;4.00;4.00;;;;;20.42;38.51;101556.84;4988151;28;62101;-47
2023/05/19 15:54:42;;;;;;;;;4.00;4.00;;;;;20.44;38.45;101558.47;4983145;28;54211;-46
2023/05/19 15:57:07;;;;;;;;;6.00;6.00;;;;;20.42;38.49;101560.31;4979383;28;45650;-46
2023/05/19 15:59:32;;;;;;;;;8.33;5.00;;;;;20.42;38.20;101554.19;4988512;28;72968;-47
2023/05/19 16:01:58;;;;;;;;;5.00;5.00;;;;;20.42;38.46;101562.09;4992919;28;70946;-49
2023/05/19 16:04:23;;;;;;;;;4.00;4.00;;;;;20.42;38.54;101554.19;4985423;28;45199;-49
2023/05/19 16:06:48;;;;;;;;;7.00;4.00;;;;;20.41;38.17;101549.84;4982642;28;45436;-46
2023/05/19 16:09:14;;;;;;;;;5.50;4.25;;;;;20.39;38.32;101566.56;4982472;28;46248;-51
2023/05/19 16:11:39;;;;;;;;;7.00;5.50;;;;;20.38;38.24;101564.84;4982426;28;45553;-49
2023/05/19 16:14:04;;;;;;;;;5.67;5.67;;;;;20.37;38.46;101565.78;4979808;28;50502;-50
2023/05/19 16:16:29;;;;;;;;;7.25;4.75;;;;;20.36;38.67;101561.44;4979664;28;45290;-46
2023/05/19 16:18:55;;;;;;;;;6.00;6.00;;;;;20.36;38.25;101561.44;4978399;28;46106;-46
2023/05/19 16:21:20;;;;;;;;;5.00;5.00;;;;;20.37;38.10;101547.34;4981005;28;45444;-47
2023/05/19 16:23:46;;;;;;;;;6.00;5.00;;;;;20.37;38.46;101552.59;4980700;28;45349;-46
2023/05/19 16:26:11;;;;;;;;;5.50;5.50;;;;;20.36;38.73;101550.91;4981288;28;45455;-53
2023/05/19 16:28:36;;;;;;;;;9.33;4.67;;;;;20.36;38.11;101550.91;4979738;28;60439;-46
2023/05/19 16:31:02;;;;;;;;;4.50;4.50;;;;;20.37;38.10;101547.34;4980150;28;45306;-49
2023/05/19 16:33:27;;;;;;;;;4.00;4.00;;;;;20.36;38.47;101556.16;4985038;28;45416;-46
2023/05/19 16:35:53;;;;;;;;;5.00;5.00;;;;;20.37;38.31;101557.03;4981526;28;45548;-48
2023/05/19 16:38:18;;;;;;;;;6.75;4.25;;;;;20.35;38.45;101543.06;4979469;28;46687;-46
2023/05/19 16:40:43;;;;;;;;;4.25;4.25;;;;;20.36;38.02;101548.25;4980162;28;45252;-48
2023/05/19 16:43:09;;;;;;;;;6.25;5.25;;;;;20.34;38.25;101536.94;4979226;28;48387;-50
2023/05/19 16:45:34;;;;;;;;;3.25;3.25;;;;;20.34;38.39;101529.03;4980274;28;45218;-46
2023/05/19 16:48:00;;;;;;;;;7.00;5.00;;;;;20.35;38.65;101549.19;4987908;28;45461;-46
2023/05/19 16:50:25;;;;;;;;;6.00;5.00;;;;;20.32;38.44;101530.91;4979444;28;46106;-46
2023/05/19 16:52:50;;;;;;;;;6.00;6.00;;;;;20.35;38.53;101527.28;4980228;28;63176;-51
2023/05/19 16:55:18;;;;;;;;;5.00;4.50;;;;;20.34;38.67;101533.47;4987987;28;45509;-46
2023/05/19 16:57:44;;;;;;;;;4.25;4.25;;;;;20.33;38.06;101532.63;4981298;28;47167;-46
2023/05/19 17:00:10;;;;;;;;;5.00;5.00;;;;;20.33;38.26;101537.88;4979552;28;46022;-46
2023/05/19 17:02:36;;;;;;;;;7.75;5.00;;;;;20.32;38.21;101533.53;4981442;28;45378;-49
2023/05/19 17:05:01;;;;;;;;;5.50;5.00;;;;;20.32;38.15;101538.81;4981262;28;45385;-50
2023/05/19 17:07:27;;;;;;;;;5.00;5.00;;;;;20.33;38.72;101545.78;4988294;28;46310;-50
2023/05/19 17:09:53;;;;;;;;;4.25;4.25;;;;;20.32;38.57;101541.44;4989272;28;45388;-46
2023/05/19 17:12:18;;;;;;;;;7.00;5.50;;;;;20.31;38.44;101539.72;4986600;28;45372;-50
2023/05/19 17:14:44;;;;;;;;;5.00;4.00;;;;;20.32;38.66;101536.19;4981296;28;45647;-60
2023/05/19 17:17:09;;;;;;;;;5.00;5.00;;;;;20.32;38.59;101541.44;4986931;28;45998;-52
2023/05/19 17:19:35;;;;;;;;;6.00;6.00;;;;;20.32;38.52;101541.44;4989247;28;45214;-53
2023/05/19 17:22:00;;;;;;;;;6.75;4.00;;;;;20.32;38.39;101540.56;5000396;28;45302;-56
2023/05/19 17:24:27;;;;;;;;;3.00;3.00;;;;;20.31;38.33;101539.72;4996628;28;63888;-48
2023/05/19 17:26:52;;;;;;;;;5.75;4.75;;;;;20.31;38.12;101533.59;4979923;28;46526;-47
2023/05/19 17:29:18;;;;;;;;;4.25;4.25;;;;;20.31;38.72;101537.09;4979310;28;45338;-47
2023/05/19 17:31:43;;;;;;;;;3.50;3.50;;;;;20.30;38.68;101545.91;4978903;28;45271;-46
2023/05/19 17:34:09;;;;;;;;;5.25;4.00;;;;;20.30;38.29;101545.91;4980390;28;45159;-46
2023/05/19 17:36:34;;;;;;;;;7.25;6.25;;;;;20.30;38.32;101543.28;4980426;28;46288;-48
2023/05/19 17:38:59;;;;;;;;;5.50;5.00;;;;;20.31;38.09;101544.13;4983807;28;45304;-47
2023/05/19 17:41:25;;;;;;;;;5.00;5.00;;;;;20.31;38.21;101544.13;4987731;28;45305;-46
2023/05/19 17:43:50;;;;;;;;;5.00;5.00;;;;;20.29;38.29;101540.69;4999884;28;45289;-48
2023/05/19 17:46:15;;;;;;;;;4.50;4.50;;;;;20.31;38.32;101531.81;5000363;28;46122;-51
2023/05/19 17:48:41;;;;;;;;;5.33;5.33;;;;;20.28;38.22;101533.75;4989711;28;55968;-48
2023/05/19 17:51:06;;;;;;;;;3.25;3.25;;;;;20.30;38.68;101542.41;4983490;28;45403;-51
2023/05/19 17:53:32;;;;;;;;;6.00;4.75;;;;;20.29;38.49;101541.56;4990961;28;45416;-51
2023/05/19 17:56:00;;;;;;;;;5.00;5.00;;;;;20.29;38.32;101544.19;4998439;28;47060;-54
2023/05/19 17:58:26;;;;;;;;;7.50;6.00;;;;;20.29;38.50;101546.81;4981057;28;45877;-48
2023/05/19 18:00:52;;;;;;;;;5.75;4.50;;;;;20.29;38.73;101543.31;4980150;28;45187;-49
2023/05/19 18:03:18;;;;;;;;;5.00;5.00;;;;;20.28;38.03;101542.47;4980681;28;45315;-47
2023/05/19 18:05:44;;;;;;;;;4.75;4.25;;;;;20.27;38.50;101546.03;4979576;28;45288;-46
2023/05/19 18:08:11;;;;;;;;;4.00;4.00;;;;;20.27;38.69;101546.03;4979689;28;45910;-48
2023/05/19 18:10:39;;;;;;;;;5.25;5.25;;;;;20.27;38.29;101538.13;4979550;28;45281;-48
2023/05/19 18:13:07;;;;;;;;;5.00;5.00;;;;;20.28;38.10;101545.13;4979242;28;45609;-49
2023/05/19 18:15:32;;;;;;;;;7.00;5.00;;;;;20.27;38.33;101547.81;4988672;28;45226;-46
2023/05/19 18:17:58;;;;;;;;;4.00;4.00;;;;;20.28;38.42;101539.84;4993322;28;45187;-50
2023/05/19 18:20:23;;;;;;;;;6.00;5.00;;;;;20.27;38.44;101538.13;4994758;28;45164;-48
2023/05/19 18:22:49;;;;;;;;;7.00;5.50;;;;;20.25;38.26;101532.06;4984049;28;45391;-46
2023/05/19 18:25:15;;;;;;;;;9.50;6.25;;;;;20.28;38.53;101539.00;4979066;28;46018;-49
2023/05/19 18:27:42;;;;;;;;;4.75;4.75;;;;;20.26;38.54;101544.31;4978777;28;45443;-46
2023/05/19 18:30:08;;;;;;;;;6.75;4.75;;;;;20.26;38.54;101544.31;4979083;28;45446;-47
2023/05/19 18:32:33;;;;;;;;;6.50;4.75;;;;;20.26;38.57;101551.38;4979472;28;45535;-50
2023/05/19 18:34:58;;;;;;;;;5.00;4.75;;;;;20.24;38.64;101540.88;4979772;28;47156;-46
2023/05/19 18:37:24;;;;;;;;;4.75;4.00;;;;;20.26;38.47;101552.22;4994226;28;44764;-47
2023/05/19 18:39:49;;;;;;;;;5.25;5.25;;;;;20.24;38.06;101544.41;4979705;28;45880;-46
2023/05/19 18:42:14;;;;;;;;;5.00;5.00;;;;;20.26;38.04;101549.59;4978621;28;45273;-46
2023/05/19 18:44:41;;;;;;;;;5.00;5.00;;;;;20.26;38.57;101549.59;4978628;28;46030;-46
2023/05/19 18:47:06;;;;;;;;;6.00;6.00;;;;;20.27;38.55;101555.72;4979057;28;45329;-53
2023/05/19 18:49:31;;;;;;;;;6.00;6.00;;;;;20.25;38.22;101553.13;4977963;28;45267;-49
2023/05/19 18:51:56;;;;;;;;;5.00;5.00;;;;;20.26;38.41;101551.38;4978000;28;61484;-58
2023/05/19 18:54:22;;;;;;;;;7.00;7.00;;;;;20.24;38.43;101557.56;4977774;28;67987;-48
2023/05/19 18:56:47;;;;;;;;;6.50;4.75;;;;;20.25;38.02;101558.41;4981113;28;45373;-51
2023/05/19 18:59:12;;;;;;;;;7.33;6.00;;;;;20.25;38.49;101563.66;4992974;28;54428;-53
2023/05/19 19:01:38;;;;;;;;;5.67;4.67;;;;;20.23;38.56;101554.97;4984451;28;55024;-53
2023/05/19 19:04:03;;;;;;;;;3.00;3.00;;;;;20.24;38.55;101561.94;4978671;28;60258;-46
2023/05/19 19:06:28;;;;;;;;;5.00;4.25;;;;;20.23;38.17;101560.22;4983797;28;45369;-45
2023/05/19 19:08:54;;;;;;;;;5.00;5.00;;;;;20.23;37.99;101565.50;4983410;28;45309;-49
2023/05/19 19:11:19;;;;;;;;;8.00;6.50;;;;;20.21;38.29;101562.94;4983116;28;45203;-60
2023/05/19 19:13:45;;;;;;;;;5.00;5.00;;;;;20.22;38.26;101561.19;4978122;28;46290;-50
2023/05/19 19:16:10;;;;;;;;;6.75;6.00;;;;;20.23;38.56;101573.41;4977904;28;45496;-46
2023/05/19 19:18:36;;;;;;;;;4.00;4.00;;;;;20.22;38.20;101569.91;4978659;28;45333;-52
2023/05/19 19:21:04;;;;;;;;;5.75;4.00;;;;;20.22;38.49;101574.34;4977492;28;45451;-46
2023/05/19 19:23:29;;;;;;;;;6.00;5.00;;;;;20.20;38.12;101568.28;4981090;28;46324;-49
2023/05/19 19:25:55;;;;;;;;;6.50;6.00;;;;;20.23;38.50;101573.41;4981897;28;45219;-45
2023/05/19 19:28:21;;;;;;;;;6.00;5.75;;;;;20.22;38.56;101572.56;4978300;28;45285;-45
2023/05/19 19:30:46;;;;;;;;;6.50;5.25;;;;;20.21;38.51;101573.47;4978311;28;45570;-49
2023/05/19 19:33:11;;;;;;;;;7.50;5.50;;;;;20.21;38.57;101584.00;4977828;28;46110;-46
2023/05/19 19:35:36;;;;;;;;;5.00;5.00;;;;;20.21;38.25;101584.00;4977905;28;58721;-46
2023/05/19 19:38:02;;;;;;;;;7.67;6.00;;;;;20.20;38.21;101577.03;4978618;28;53035;-45
2023/05/19 19:40:28;;;;;;;;;7.25;6.00;;;;;20.22;38.54;101587.50;4980031;28;45258;-48
2023/05/19 19:42:53;;;;;;;;;5.00;4.75;;;;;20.19;38.37;101579.72;4981896;28;46626;-45
2023/05/19 19:45:19;;;;;;;;;6.25;6.00;;;;;20.20;38.13;101586.72;4981877;28;45310;-53
2023/05/19 19:47:45;;;;;;;;;6.25;4.75;;;;;20.19;38.31;101585.84;4998428;28;45408;-49
2023/05/19 19:50:10;;;;;;;;;4.50;4.50;;;;;20.19;38.38;101595.53;4976871;28;45250;-46
2023/05/19 19:52:36;;;;;;;;;5.25;5.25;;;;;20.17;38.49;101592.97;4995050;28;46016;-47
2023/05/19 19:55:02;;;;;;;;;7.00;7.00;;;;;20.20;38.11;101597.25;4998486;28;45355;-46
2023/05/19 19:57:28;;;;;;;;;5.50;5.00;;;;;20.19;38.47;101593.72;4990403;28;45365;-45
2023/05/19 19:59:56;;;;;;;;;5.50;5.50;;;;;20.21;38.45;101604.22;4981388;28;45471;-51